Terminal Aerodrome Forecast
Issued by NWS

Home | Current Version | Previous Version | Text Only | Print | Product List | Glossary On
Versions: 1 2 3 4 5 6 7 8 9 10 11 12
000
FTUS44 KSJT 302300
TAFJCT
TAF
KJCT 302326Z 3100/3124 07010KT P6SM BKN050
     FM310500 11007KT P6SM OVC025
     FM310900 13008KT 6SM -RA BR OVC015
     FM311400 15011KT 3SM -RA BR OVC006=

USA.gov is the U.S. government's official web portal to all federal, state and local government web resources and services.